Time;durP1;ratioP1;P1;durP2;ratioP2;P2;SDS_P1;SDS_P2;PMS_P1;PMS_P2;Temp;Humidity;BMP_temperature;BMP_pressure;BME280_temperature;BME280_humidity;BME280_pressure;Samples;Min_cycle;Max_cycle;Signal;HPM_P1;HPM_P2
2023/02/28 00:02:17;;;;;;;;;5.25;4.00;;;;;21.56;27.35;102001.41;5066954;27;56051;-69
2023/02/28 00:04:43;;;;;;;;;5.00;5.00;;;;;21.56;27.38;102004.91;5073790;28;46798;-69
2023/02/28 00:07:08;;;;;;;;;3.00;3.00;;;;;21.57;27.54;102006.66;5073091;28;45484;-69
2023/02/28 00:09:33;;;;;;;;;3.00;3.00;;;;;21.54;27.40;101996.16;5070681;28;45352;-69
2023/02/28 00:11:59;;;;;;;;;6.00;4.00;;;;;21.51;27.48;101998.97;5072586;28;54494;-69
2023/02/28 00:14:24;;;;;;;;;4.50;3.00;;;;;21.51;27.28;102004.28;5068110;27;58893;-69
2023/02/28 00:16:49;;;;;;;;;6.00;4.50;;;;;21.54;27.70;102000.63;5070044;28;46729;-69
2023/02/28 00:19:15;;;;;;;;;2.00;2.00;;;;;21.53;27.42;102010.44;5069387;28;45553;-69
2023/02/28 00:21:40;;;;;;;;;3.00;3.00;;;;;21.51;27.16;102006.97;5071383;28;45449;-69
2023/02/28 00:24:06;;;;;;;;;4.00;4.00;;;;;21.47;27.38;102001.91;5067297;27;46369;-69
2023/02/28 00:26:32;;;;;;;;;5.00;3.75;;;;;21.47;27.29;102013.41;5073943;28;45610;-69
2023/02/28 00:28:57;;;;;;;;;4.00;3.50;;;;;21.45;27.71;102015.25;5076075;28;45454;-69
2023/02/28 00:31:23;;;;;;;;;3.50;3.50;;;;;21.45;27.53;102015.25;5071509;27;45714;-69
2023/02/28 00:33:48;;;;;;;;;4.00;4.00;;;;;21.43;27.56;102018.00;5072032;28;47925;-69
2023/02/28 00:36:13;;;;;;;;;3.00;3.00;;;;;21.41;27.04;102014.56;5071460;28;46939;-69
2023/02/28 00:38:40;;;;;;;;;4.25;3.00;;;;;21.42;27.61;102012.75;5092842;27;45433;-69
2023/02/28 00:41:05;;;;;;;;;5.00;3.25;;;;;21.41;27.57;102011.91;5054283;27;46297;-68
2023/02/28 00:43:32;;;;;;;;;7.75;3.00;;;;;21.42;27.78;102015.41;5072061;28;46286;-69
2023/02/28 00:45:58;;;;;;;;;4.00;3.25;;;;;21.37;27.25;102014.78;5069568;28;45480;-69
2023/02/28 00:48:23;;;;;;;;;4.50;3.00;;;;;21.37;27.26;102015.66;5073684;27;45314;-69
2023/02/28 00:50:49;;;;;;;;;3.00;3.00;;;;;21.34;27.15;102014.97;5066393;28;50303;-69
2023/02/28 00:53:15;;;;;;;;;4.25;4.25;;;;;21.37;27.20;102017.44;5073410;27;46994;-69
2023/02/28 00:55:40;;;;;;;;;3.00;3.00;;;;;21.34;27.46;102025.63;5066594;28;45322;-69
2023/02/28 00:58:05;;;;;;;;;4.00;4.00;;;;;21.32;27.29;102023.03;5075300;28;56842;-69
2023/02/28 01:00:31;;;;;;;;;5.00;3.50;;;;;21.32;27.22;102024.81;5070193;27;57321;-70
2023/02/28 01:02:56;;;;;;;;;3.50;3.00;;;;;21.31;27.54;102023.13;5069467;27;65266;-69
2023/02/28 01:05:21;;;;;;;;;3.00;3.00;;;;;21.32;27.19;102033.69;5069734;28;45431;-69
2023/02/28 01:07:47;;;;;;;;;3.00;3.00;;;;;21.31;27.67;102031.09;5075499;27;58341;-69
2023/02/28 01:10:12;;;;;;;;;3.75;3.25;;;;;21.29;27.59;102031.19;5065634;28;55173;-69
2023/02/28 01:12:38;;;;;;;;;5.00;3.25;;;;;21.26;27.36;102026.00;5076122;27;46794;-69
2023/02/28 01:15:03;;;;;;;;;4.00;3.00;;;;;21.27;27.59;102037.53;5071390;27;45401;-69
2023/02/28 01:17:29;;;;;;;;;3.00;3.00;;;;;21.26;27.49;102027.81;5076971;27;45322;-70
2023/02/28 01:19:55;;;;;;;;;4.00;2.25;;;;;21.24;27.22;102043.84;5070242;28;53058;-69
2023/02/28 01:22:21;;;;;;;;;3.25;3.25;;;;;21.26;27.90;102041.13;5060136;28;47293;-69
2023/02/28 01:24:47;;;;;;;;;2.50;2.50;;;;;21.25;27.67;102042.94;5052326;28;45197;-69
2023/02/28 01:27:13;;;;;;;;;3.00;2.75;;;;;21.22;27.56;102035.94;5069395;28;45487;-70
2023/02/28 01:29:38;;;;;;;;;2.00;2.00;;;;;21.26;27.59;102043.78;5071113;27;46074;-69
2023/02/28 01:32:04;;;;;;;;;4.50;2.50;;;;;21.27;27.54;102050.84;5072572;27;57849;-70
2023/02/28 01:34:29;;;;;;;;;4.50;3.00;;;;;21.28;27.83;102036.56;5053681;28;55563;-70
2023/02/28 01:36:54;;;;;;;;;4.75;2.00;;;;;21.29;27.76;102038.31;5075912;28;58976;-70
2023/02/28 01:39:19;;;;;;;;;4.00;2.00;;;;;21.31;27.99;102036.44;5066801;27;59852;-70
2023/02/28 01:41:45;;;;;;;;;3.00;3.00;;;;;21.31;27.60;102028.44;5075372;27;47887;-69
2023/02/28 01:44:48;;;;;;;;;2.00;2.00;;;;;21.34;27.52;102033.63;5078755;27;45271;-70
2023/02/28 01:47:14;;;;;;;;;2.25;2.25;;;;;21.34;27.71;102026.47;5075584;27;45329;-70
2023/02/28 01:49:39;;;;;;;;;3.25;3.00;;;;;21.36;27.54;102027.25;5074373;27;63052;-69
2023/02/28 01:52:05;;;;;;;;;3.00;3.00;;;;;21.36;27.67;102019.25;5073165;27;65706;-69
2023/02/28 01:54:31;;;;;;;;;3.50;3.50;;;;;21.37;27.79;102014.78;5070685;27;66691;-69
2023/02/28 01:57:03;;;;;;;;;3.50;3.50;;;;;21.39;27.72;102034.25;5079519;28;45323;-69
2023/02/28 01:59:53;;;;;;;;;2.25;2.25;;;;;21.38;27.44;102022.69;5069148;27;45569;-69
2023/02/28 02:02:20;;;;;;;;;3.00;3.00;;;;;21.39;27.46;102023.59;5075666;27;45639;-69
2023/02/28 02:04:52;;;;;;;;;3.00;3.00;;;;;21.42;27.80;102023.41;5060953;28;46063;-69
2023/02/28 02:07:18;;;;;;;;;4.25;3.50;;;;;21.40;28.07;102017.31;5075453;27;45358;-69
2023/02/28 02:09:43;;;;;;;;;3.25;3.25;;;;;21.41;27.88;102011.91;5076615;27;53267;-70
2023/02/28 02:12:25;;;;;;;;;2.75;2.75;;;;;21.42;27.88;102018.06;5074475;27;45787;-69
2023/02/28 02:15:01;;;;;;;;;8.00;4.00;;;;;21.38;27.84;102009.38;5072796;27;45351;-69
2023/02/28 02:17:45;;;;;;;;;3.00;3.00;;;;;21.39;27.48;102008.47;5059677;28;45314;-69
2023/02/28 02:20:38;;;;;;;;;5.00;3.00;;;;;21.38;27.40;102012.06;5056564;28;45701;-69
2023/02/28 02:23:12;;;;;;;;;4.50;3.00;;;;;21.40;27.40;102018.16;5090884;27;46168;-69
2023/02/28 02:26:13;;;;;;;;;3.00;3.00;;;;;21.38;28.02;102012.06;5075311;27;45824;-69
2023/02/28 02:29:16;;;;;;;;;5.25;3.00;;;;;21.37;27.72;102007.69;5074192;27;45367;-69
2023/02/28 02:32:25;;;;;;;;;4.75;4.00;;;;;21.34;27.50;101997.19;5053110;27;45414;-69
2023/02/28 02:35:02;;;;;;;;;2.00;2.00;;;;;21.36;27.44;102000.63;5072594;27;46146;-69
2023/02/28 02:37:31;;;;;;;;;4.00;2.00;;;;;21.36;27.51;101994.44;5060214;28;45422;-69
2023/02/28 02:40:30;;;;;;;;;3.00;3.00;;;;;21.34;27.43;102001.66;5071918;28;45461;-69
2023/02/28 02:43:01;;;;;;;;;4.25;2.75;;;;;21.32;27.38;101993.75;5071159;27;45446;-70
2023/02/28 02:45:35;;;;;;;;;2.50;2.50;;;;;21.31;27.28;102000.00;5076324;28;46054;-69
2023/02/28 02:48:03;;;;;;;;;4.75;3.00;;;;;21.31;27.36;101994.66;5066623;27;45872;-70
2023/02/28 02:50:37;;;;;;;;;2.00;2.00;;;;;21.28;27.45;101997.47;5078638;28;45292;-69
2023/02/28 02:53:03;;;;;;;;;3.50;2.00;;;;;21.28;27.31;102012.59;5077605;28;45812;-69
2023/02/28 02:55:31;;;;;;;;;3.75;2.50;;;;;21.28;27.51;102001.97;5074104;27;47182;-69
2023/02/28 02:58:03;;;;;;;;;2.75;2.00;;;;;21.25;27.65;102003.00;5070133;27;45479;-69
2023/02/28 03:00:41;;;;;;;;;4.50;3.50;;;;;21.24;27.88;101999.44;5064117;28;45376;-69
2023/02/28 03:03:09;;;;;;;;;5.75;2.50;;;;;21.22;27.80;101993.34;5076698;28;45325;-69
2023/02/28 03:05:49;;;;;;;;;5.00;3.00;;;;;21.23;27.41;101994.22;5056703;28;47840;-69
2023/02/28 03:08:14;;;;;;;;;3.00;3.00;;;;;21.22;27.78;101990.69;5058418;28;45423;-69
2023/02/28 03:10:42;;;;;;;;;1.75;1.75;;;;;21.22;27.85;101995.16;5066500;28;45495;-69
2023/02/28 03:13:28;;;;;;;;;4.75;2.00;;;;;21.20;27.73;102003.22;5053750;28;45435;-69
2023/02/28 03:16:12;;;;;;;;;2.00;2.00;;;;;21.20;27.52;102002.38;5077492;28;46062;-69
2023/02/28 03:18:49;;;;;;;;;3.00;2.00;;;;;21.20;27.96;102007.69;5079164;27;45739;-70
2023/02/28 03:21:29;;;;;;;;;2.25;2.25;;;;;21.20;27.85;102003.22;5069651;27;45370;-70
2023/02/28 03:24:08;;;;;;;;;2.00;2.00;;;;;21.21;27.91;102015.59;5073406;27;45500;-70
2023/02/28 03:26:38;;;;;;;;;3.00;2.50;;;;;21.22;27.72;102008.47;5068962;28;45478;-70
2023/02/28 03:29:23;;;;;;;;;2.75;2.75;;;;;21.24;27.76;102004.78;5070493;28;45400;-70
2023/02/28 03:31:58;;;;;;;;;3.00;3.00;;;;;21.23;27.93;102012.88;5070770;28;45387;-70
2023/02/28 03:34:33;;;;;;;;;3.00;3.00;;;;;21.23;27.67;102010.19;5074459;28;45379;-70
2023/02/28 03:37:05;;;;;;;;;1.00;1.00;;;;;21.27;28.02;102003.78;5071306;27;45469;-70
2023/02/28 03:39:49;;;;;;;;;2.50;2.50;;;;;21.28;27.52;102004.63;5074414;28;45489;-70
2023/02/28 03:42:19;;;;;;;;;2.00;2.00;;;;;21.30;27.95;102005.41;5073162;27;45358;-70
2023/02/28 03:44:48;;;;;;;;;2.00;2.00;;;;;21.30;27.47;102002.75;5062201;28;45308;-70
2023/02/28 03:47:17;;;;;;;;;2.00;2.00;;;;;21.31;27.76;102009.78;5064748;28;45548;-70
2023/02/28 03:50:07;;;;;;;;;2.50;2.50;;;;;21.32;27.44;102012.38;5064166;28;45271;-70
2023/02/28 03:52:36;;;;;;;;;2.00;2.00;;;;;21.33;27.34;101994.59;5073499;27;45384;-70
2023/02/28 03:55:07;;;;;;;;;4.00;2.00;;;;;21.34;27.91;102004.31;5076489;28;45524;-70
2023/02/28 03:57:38;;;;;;;;;2.00;2.00;;;;;21.33;27.34;102003.44;5075968;28;48878;-70
2023/02/28 04:00:12;;;;;;;;;2.75;2.75;;;;;21.29;27.77;102001.88;5072977;27;45270;-70
2023/02/28 04:02:39;;;;;;;;;1.00;1.00;;;;;21.35;27.40;102011.34;5063170;27;45413;-69
2023/02/28 04:05:05;;;;;;;;;5.00;2.00;;;;;21.35;27.34;102008.69;5073305;27;45443;-70
2023/02/28 04:07:30;;;;;;;;;2.00;2.00;;;;;21.34;27.57;102013.16;5074455;27;45959;-69
2023/02/28 04:09:56;;;;;;;;;3.50;3.00;;;;;21.34;27.58;102013.16;5074600;28;45406;-69
2023/02/28 04:12:23;;;;;;;;;2.50;2.00;;;;;21.33;27.57;102014.09;5075312;28;45205;-70
2023/02/28 04:14:49;;;;;;;;;4.00;2.50;;;;;21.33;27.63;102013.22;5069226;28;45427;-70
2023/02/28 04:17:14;;;;;;;;;2.25;2.00;;;;;21.32;27.23;102016.81;5075062;27;45490;-70
2023/02/28 04:19:40;;;;;;;;;1.75;1.75;;;;;21.32;27.84;102020.38;5072432;27;45469;-69
2023/02/28 04:22:05;;;;;;;;;2.25;2.25;;;;;21.31;27.75;102029.28;5076094;27;45480;-69
2023/02/28 04:24:30;;;;;;;;;2.00;2.00;;;;;21.31;27.45;102015.97;5051874;28;67265;-69
2023/02/28 04:26:57;;;;;;;;;4.00;3.00;;;;;21.28;27.60;102024.13;5063680;28;46045;-70
2023/02/28 04:29:31;;;;;;;;;2.00;2.00;;;;;21.28;27.67;102029.44;5070859;27;45472;-70
2023/02/28 04:31:57;;;;;;;;;4.00;3.00;;;;;21.28;27.82;102025.91;5073226;27;45528;-70
2023/02/28 04:34:23;;;;;;;;;3.00;3.00;;;;;21.27;27.31;102025.06;5064847;28;45652;-70
2023/02/28 04:36:50;;;;;;;;;3.00;3.00;;;;;21.23;27.25;102027.03;5070739;27;46293;-70
2023/02/28 04:39:18;;;;;;;;;3.00;2.00;;;;;21.22;27.73;102027.97;5068587;28;45242;-70
2023/02/28 04:41:44;;;;;;;;;1.75;1.50;;;;;21.23;27.41;102032.34;5065582;27;45516;-69
2023/02/28 04:44:09;;;;;;;;;2.25;2.25;;;;;21.20;27.71;102037.84;5063720;28;45501;-70
2023/02/28 04:46:34;;;;;;;;;4.00;3.00;;;;;21.21;27.46;102036.91;5065578;28;57846;-69
2023/02/28 04:49:00;;;;;;;;;4.25;2.25;;;;;21.17;27.34;102037.13;5050500;28;47054;-70
2023/02/28 04:51:25;;;;;;;;;3.00;2.00;;;;;21.17;27.33;102034.47;5068867;27;54774;-70
2023/02/28 04:53:50;;;;;;;;;4.00;2.00;;;;;21.18;27.87;102036.19;5059836;28;63911;-70
2023/02/28 04:56:17;;;;;;;;;1.75;1.75;;;;;21.16;27.81;102035.38;5054270;28;69777;-69
2023/02/28 04:58:43;;;;;;;;;2.00;2.00;;;;;21.17;27.58;102037.97;5049834;28;45442;-70
2023/02/28 05:01:17;;;;;;;;;2.00;2.00;;;;;21.19;27.40;102040.56;5068617;28;45564;-70
2023/02/28 05:03:43;;;;;;;;;3.00;2.00;;;;;21.14;27.67;102037.28;5069626;28;45406;-69
2023/02/28 05:06:09;;;;;;;;;2.00;2.00;;;;;21.18;27.95;102046.84;5065214;28;46797;-70
2023/02/28 05:08:35;;;;;;;;;2.00;2.00;;;;;21.19;27.35;102041.41;5069117;28;45728;-70
2023/02/28 05:11:01;;;;;;;;;3.50;2.00;;;;;21.20;27.70;102048.47;5071663;27;45564;-70
2023/02/28 05:13:27;;;;;;;;;3.00;2.75;;;;;21.20;27.76;102051.13;5070253;28;45537;-70
2023/02/28 05:15:53;;;;;;;;;1.75;1.75;;;;;21.22;27.63;102049.25;5066039;28;46650;-69
2023/02/28 05:18:18;;;;;;;;;4.00;3.00;;;;;21.22;27.45;102057.25;5061790;28;45458;-69
2023/02/28 05:20:44;;;;;;;;;2.00;2.00;;;;;21.22;27.35;102051.06;5079153;27;45542;-70
2023/02/28 05:23:12;;;;;;;;;2.00;2.00;;;;;21.24;27.91;102055.34;5068615;27;45770;-70
2023/02/28 05:25:38;;;;;;;;;3.00;2.00;;;;;21.24;27.44;102058.03;5066670;27;45873;-69
2023/02/28 05:28:03;;;;;;;;;2.00;2.00;;;;;21.24;27.65;102058.03;5075191;27;45153;-70
2023/02/28 05:30:29;;;;;;;;;1.75;1.75;;;;;21.27;27.52;102059.69;5077073;28;45482;-70
2023/02/28 05:32:55;;;;;;;;;2.75;2.75;;;;;21.29;27.59;102062.28;5074261;27;45356;-69
2023/02/28 05:35:20;;;;;;;;;3.50;1.50;;;;;21.30;27.47;102063.97;5064798;28;61904;-70
2023/02/28 05:37:46;;;;;;;;;2.00;2.00;;;;;21.28;27.33;102066.72;5065321;27;45478;-70
2023/02/28 05:40:11;;;;;;;;;2.25;2.00;;;;;21.30;27.76;102071.97;5072801;27;46865;-70
2023/02/28 05:42:37;;;;;;;;;3.00;3.00;;;;;21.28;27.05;102072.03;5071128;27;45552;-69
2023/02/28 05:45:07;;;;;;;;;2.00;2.00;;;;;21.30;27.46;102078.19;5065227;27;45394;-70
2023/02/28 05:47:32;;;;;;;;;2.25;2.25;;;;;21.30;27.62;102079.94;5051779;28;45471;-70
2023/02/28 05:49:58;;;;;;;;;2.75;2.00;;;;;21.29;27.59;102072.94;5082040;27;46739;-70
2023/02/28 05:52:23;;;;;;;;;3.75;3.00;;;;;21.29;27.36;102080.91;5077558;27;64925;-70
2023/02/28 05:54:48;;;;;;;;;4.00;3.00;;;;;21.31;27.66;102081.69;5074577;27;69516;-70
2023/02/28 05:57:14;;;;;;;;;2.50;2.00;;;;;21.30;27.60;102079.94;5064435;27;45354;-70
2023/02/28 05:59:40;;;;;;;;;2.75;2.25;;;;;21.29;27.70;102083.56;5071234;28;45426;-70
2023/02/28 06:02:10;;;;;;;;;3.25;3.25;;;;;21.28;27.67;102068.53;5067698;27;45320;-69
2023/02/28 06:04:36;;;;;;;;;3.00;3.00;;;;;21.20;27.67;102061.78;5061717;27;45468;-69
2023/02/28 06:07:01;;;;;;;;;3.25;2.75;;;;;21.26;27.34;102071.25;5071197;28;45536;-69
2023/02/28 06:09:27;;;;;;;;;3.50;3.50;;;;;21.22;27.43;102075.88;5075518;27;49720;-69
2023/02/28 06:11:52;;;;;;;;;2.50;2.50;;;;;21.24;27.30;102074.00;5073327;27;55155;-69
2023/02/28 06:14:19;;;;;;;;;3.25;3.25;;;;;21.23;27.57;102074.97;5056952;28;47212;-70
2023/02/28 06:16:45;;;;;;;;;4.25;4.00;;;;;21.20;27.34;102072.44;5071215;28;45802;-70
2023/02/28 06:19:10;;;;;;;;;4.00;4.00;;;;;21.19;27.71;102078.69;5072539;27;45379;-70
2023/02/28 06:21:36;;;;;;;;;4.00;4.00;;;;;21.19;27.32;102076.03;5077623;27;45259;-69
2023/02/28 06:24:02;;;;;;;;;3.25;3.00;;;;;21.19;27.78;102080.50;5063836;27;45299;-70
2023/02/28 06:26:27;;;;;;;;;3.25;3.25;;;;;21.16;27.75;102077.97;5061440;28;45398;-69
2023/02/28 06:28:53;;;;;;;;;3.00;3.00;;;;;21.14;27.26;102080.75;5063809;27;60318;-69
2023/02/28 06:31:19;;;;;;;;;3.25;3.25;;;;;21.16;27.62;102092.19;5056538;28;46268;-70
2023/02/28 06:33:45;;;;;;;;;4.00;3.50;;;;;21.13;27.85;102084.34;5070000;27;59340;-69
2023/02/28 06:36:12;;;;;;;;;4.50;3.50;;;;;21.15;27.31;102093.09;5069298;28;45456;-70
2023/02/28 06:38:38;;;;;;;;;4.00;4.00;;;;;21.16;27.72;102094.84;5074160;27;45268;-67
2023/02/28 06:41:05;;;;;;;;;4.75;3.25;;;;;21.15;27.94;102090.44;5069045;27;46603;-70
2023/02/28 06:43:33;;;;;;;;;3.25;3.25;;;;;21.16;27.48;102094.84;5060467;28;47374;-71
2023/02/28 06:45:59;;;;;;;;;4.00;4.00;;;;;21.20;27.58;102095.56;5064869;27;46071;-71
2023/02/28 06:48:27;;;;;;;;;7.75;5.00;;;;;21.21;27.94;102092.81;5073921;27;45639;-71
2023/02/28 06:50:52;;;;;;;;;4.00;3.00;;;;;21.20;27.79;102090.22;5064231;28;45496;-69
2023/02/28 06:53:17;;;;;;;;;3.75;3.75;;;;;21.24;27.94;102099.78;5048135;28;46234;-70
2023/02/28 06:55:43;;;;;;;;;6.00;5.00;;;;;21.24;27.62;102092.63;5060509;28;58697;-69
2023/02/28 06:58:15;;;;;;;;;5.50;4.75;;;;;21.24;27.67;102089.97;5061325;27;45405;-70
2023/02/28 07:00:42;;;;;;;;;7.25;6.00;;;;;21.26;27.98;102097.88;5072698;27;45392;-69
2023/02/28 07:03:07;;;;;;;;;8.25;7.00;;;;;21.25;28.30;102093.53;5061077;28;45473;-68
2023/02/28 07:05:35;;;;;;;;;11.75;10.50;;;;;21.29;27.91;102102.22;5067816;27;45500;-70
2023/02/28 07:08:00;;;;;;;;;18.00;13.25;;;;;21.28;26.99;102103.13;5081482;28;45452;-69
2023/02/28 07:10:25;;;;;;;;;24.50;18.00;;;;;21.22;26.85;102101.66;5073576;27;45663;-70
2023/02/28 07:12:51;;;;;;;;;20.25;18.00;;;;;21.17;26.50;102099.22;5070308;27;64892;-69
2023/02/28 07:15:16;;;;;;;;;19.25;17.00;;;;;21.12;26.30;102111.88;5080539;27;45424;-70
2023/02/28 07:17:42;;;;;;;;;18.50;17.00;;;;;21.03;26.84;102097.25;5070065;27;52348;-68
2023/02/28 07:20:08;;;;;;;;;20.25;14.50;;;;;20.97;26.92;102102.88;5076938;27;50678;-71
2023/02/28 07:22:33;;;;;;;;;13.25;13.25;;;;;20.96;26.67;102098.47;5059093;28;47155;-69
2023/02/28 07:24:59;;;;;;;;;11.00;9.50;;;;;20.97;26.91;102096.69;5064251;28;45459;-69
2023/02/28 07:27:25;;;;;;;;;10.75;10.50;;;;;20.98;26.92;102096.63;5071863;28;45409;-70
2023/02/28 07:29:51;;;;;;;;;10.75;9.75;;;;;21.01;26.97;102092.94;5072517;28;45563;-70
2023/02/28 07:32:18;;;;;;;;;10.25;9.25;;;;;21.04;27.46;102090.13;5069625;28;46178;-70
2023/02/28 07:34:43;;;;;;;;;11.00;8.75;;;;;21.08;27.79;102097.00;5074859;28;45740;-69
2023/02/28 07:37:09;;;;;;;;;10.25;8.75;;;;;21.08;27.85;102105.00;5075271;27;45394;-69
2023/02/28 07:39:34;;;;;;;;;12.00;9.00;;;;;21.12;28.02;102105.72;5068371;28;45157;-70
2023/02/28 07:41:59;;;;;;;;;10.75;8.50;;;;;21.16;28.13;102104.59;5074168;28;45348;-68
2023/02/28 07:44:26;;;;;;;;;9.25;8.25;;;;;21.17;27.85;102109.84;5062782;28;45458;-69
2023/02/28 07:46:52;;;;;;;;;8.00;6.25;;;;;21.19;28.30;102107.13;5065277;27;45241;-68
2023/02/28 07:49:18;;;;;;;;;7.75;6.25;;;;;21.22;28.60;102117.63;5078217;27;45219;-67
2023/02/28 07:51:43;;;;;;;;;9.25;7.50;;;;;21.22;28.25;102109.63;5074185;27;46326;-68
2023/02/28 07:54:08;;;;;;;;;9.75;6.75;;;;;21.23;28.54;102112.22;5066409;28;58106;-68
2023/02/28 07:56:34;;;;;;;;;6.75;6.75;;;;;21.21;28.53;102115.88;5066451;28;45264;-71
2023/02/28 07:58:59;;;;;;;;;8.75;7.00;;;;;21.25;28.59;102112.16;5058166;27;63478;-68
2023/02/28 08:01:25;;;;;;;;;8.25;6.25;;;;;21.30;28.25;102126.09;5058039;28;45434;-68
2023/02/28 08:03:50;;;;;;;;;8.25;7.00;;;;;21.30;28.36;102110.13;5057063;28;56748;-72
2023/02/28 08:06:21;;;;;;;;;7.75;6.75;;;;;21.31;29.02;102110.97;5071225;28;45374;-69
2023/02/28 08:08:47;;;;;;;;;6.50;5.75;;;;;21.35;28.64;102126.72;5077089;27;45244;-71
2023/02/28 08:11:13;;;;;;;;;6.50;6.00;;;;;21.36;28.48;102119.59;5076133;27;47108;-70
2023/02/28 08:13:38;;;;;;;;;7.25;6.00;;;;;21.43;28.38;102123.69;5074960;28;45412;-70
2023/02/28 08:16:04;;;;;;;;;6.50;6.00;;;;;21.46;28.77;102130.66;5080493;27;45497;-67
2023/02/28 08:18:29;;;;;;;;;8.25;6.50;;;;;21.49;28.27;102125.19;5065683;28;45527;-69
2023/02/28 08:20:54;;;;;;;;;6.75;5.25;;;;;21.50;28.43;102124.28;5074989;27;58644;-74
2023/02/28 08:23:20;;;;;;;;;9.25;6.25;;;;;21.53;28.85;102118.75;5076568;27;64015;-71
2023/02/28 08:25:53;;;;;;;;;9.50;7.00;;;;;21.55;28.88;102127.56;5077649;28;45339;-69
2023/02/28 08:28:18;;;;;;;;;7.00;6.75;;;;;21.54;28.63;102123.16;5051915;28;45500;-70
2023/02/28 08:30:43;;;;;;;;;9.25;8.75;;;;;21.53;28.17;102129.41;5061415;28;48377;-70
2023/02/28 08:33:09;;;;;;;;;13.00;11.50;;;;;21.51;28.25;102132.16;5058574;28;45430;-69
2023/02/28 08:35:36;;;;;;;;;9.50;9.00;;;;;21.49;28.17;102134.03;5071653;27;45331;-69
2023/02/28 08:38:01;;;;;;;;;8.50;7.00;;;;;21.53;28.41;102132.09;5063320;27;45605;-69
2023/02/28 08:40:26;;;;;;;;;10.00;6.25;;;;;21.52;28.49;102128.56;5052288;28;51215;-69
2023/02/28 08:42:52;;;;;;;;;7.75;6.00;;;;;21.52;28.38;102136.56;5067110;28;45472;-69
2023/02/28 08:45:17;;;;;;;;;6.00;5.75;;;;;21.50;27.96;102130.44;5071861;27;62436;-69
2023/02/28 08:47:42;;;;;;;;;9.25;5.50;;;;;21.56;28.12;102129.28;5068472;28;45427;-69
2023/02/28 08:50:08;;;;;;;;;6.50;5.00;;;;;21.54;28.29;102131.16;5048622;28;62393;-69
2023/02/28 08:52:34;;;;;;;;;5.75;5.25;;;;;21.56;28.08;102143.44;5074331;27;45415;-69
2023/02/28 08:54:59;;;;;;;;;9.00;5.75;;;;;21.58;28.00;102143.38;5058388;28;64117;-69
2023/02/28 08:57:26;;;;;;;;;7.75;5.50;;;;;21.57;27.94;102136.34;5050021;28;45458;-69
2023/02/28 08:59:51;;;;;;;;;5.75;5.00;;;;;21.60;27.90;102137.03;5070608;27;46017;-69
2023/02/28 09:02:17;;;;;;;;;6.25;5.00;;;;;21.60;28.10;102134.38;5075530;28;45433;-69
2023/02/28 09:04:45;;;;;;;;;7.50;4.50;;;;;21.62;28.10;102136.97;5070758;27;45453;-69
2023/02/28 09:07:10;;;;;;;;;6.75;4.50;;;;;21.61;28.40;102127.22;5074415;28;45548;-69
2023/02/28 09:09:36;;;;;;;;;5.75;5.75;;;;;21.60;28.25;102134.38;5073017;27;46119;-69
2023/02/28 09:12:01;;;;;;;;;4.00;4.00;;;;;21.63;28.38;102136.00;5063879;28;45416;-69
2023/02/28 09:14:27;;;;;;;;;5.75;5.00;;;;;21.62;28.06;102128.97;5073028;28;45456;-69
2023/02/28 09:16:52;;;;;;;;;4.50;3.00;;;;;21.64;27.67;102128.88;5057057;28;61087;-69
2023/02/28 09:19:18;;;;;;;;;7.75;5.00;;;;;21.63;28.13;102128.00;5063942;28;59982;-69
2023/02/28 09:21:43;;;;;;;;;6.50;5.75;;;;;21.64;28.08;102132.41;5075299;27;45276;-69
2023/02/28 09:24:08;;;;;;;;;6.00;4.00;;;;;21.66;28.41;102143.84;5063800;28;58270;-69
2023/02/28 09:26:34;;;;;;;;;7.00;4.50;;;;;21.68;27.92;102146.44;5058889;28;45597;-69
2023/02/28 09:28:59;;;;;;;;;4.00;4.00;;;;;21.70;28.24;102148.06;5058312;27;47091;-69
2023/02/28 09:31:27;;;;;;;;;6.00;5.00;;;;;21.67;28.22;102128.72;5073059;27;45465;-69
2023/02/28 09:33:55;;;;;;;;;4.25;3.00;;;;;21.71;28.42;102143.59;5076686;28;45582;-69
2023/02/28 09:36:22;;;;;;;;;3.75;3.75;;;;;21.71;28.23;102140.94;5048240;28;45535;-69
2023/02/28 09:38:49;;;;;;;;;4.50;4.00;;;;;21.70;27.94;102140.06;5057756;28;47387;-69
2023/02/28 09:41:25;;;;;;;;;4.25;4.25;;;;;21.71;28.11;102135.59;5068987;28;45684;-69
2023/02/28 09:43:55;;;;;;;;;6.00;3.75;;;;;21.72;28.02;102140.00;5074052;27;45481;-69
2023/02/28 09:46:40;;;;;;;;;5.00;3.25;;;;;21.76;28.37;102142.44;5072511;28;45280;-68
2023/02/28 09:49:23;;;;;;;;;3.50;3.25;;;;;21.77;28.36;102140.63;5049763;28;47520;-69
2023/02/28 09:51:49;;;;;;;;;5.00;3.25;;;;;21.77;27.88;102127.31;5071880;27;45501;-69
2023/02/28 09:54:18;;;;;;;;;6.00;4.25;;;;;21.71;28.09;102120.50;5074744;27;45249;-69
2023/02/28 09:56:45;;;;;;;;;4.75;4.00;;;;;21.79;28.33;102128.09;5070077;27;45427;-69
2023/02/28 09:59:17;;;;;;;;;6.00;4.00;;;;;21.79;27.86;102134.25;5071408;28;46470;-69
2023/02/28 10:01:42;;;;;;;;;3.50;3.00;;;;;21.80;27.87;102130.66;5064515;28;45734;-69
2023/02/28 10:04:29;;;;;;;;;3.25;3.25;;;;;21.81;28.02;102128.84;5072597;28;45432;-68
2023/02/28 10:06:55;;;;;;;;;5.75;4.00;;;;;21.80;28.00;102122.69;5072092;27;45263;-68
2023/02/28 10:09:26;;;;;;;;;3.00;3.00;;;;;21.83;28.23;102126.13;5075638;28;59282;-68
2023/02/28 10:11:54;;;;;;;;;4.25;3.00;;;;;21.82;28.41;102132.41;5075490;28;45421;-69
2023/02/28 10:14:22;;;;;;;;;3.00;3.00;;;;;21.84;27.67;102123.38;5067074;28;45499;-69
2023/02/28 10:16:55;;;;;;;;;3.75;2.25;;;;;21.86;28.43;102125.97;5076437;27;45238;-70
2023/02/28 10:19:40;;;;;;;;;3.25;3.25;;;;;21.87;28.22;102114.34;5072357;27;46203;-69
2023/02/28 10:22:17;;;;;;;;;3.00;3.00;;;;;21.88;28.38;102116.94;5075081;27;45230;-68
2023/02/28 10:24:45;;;;;;;;;3.50;3.50;;;;;21.86;27.91;102109.97;5069152;28;45614;-68
2023/02/28 10:27:18;;;;;;;;;4.00;3.00;;;;;21.87;28.00;102117.00;5060964;28;45599;-68
2023/02/28 10:29:46;;;;;;;;;3.00;2.25;;;;;21.89;28.21;102102.69;5082007;27;46246;-68
2023/02/28 10:32:15;;;;;;;;;4.00;4.00;;;;;21.87;28.13;102098.34;5076784;27;45990;-68
2023/02/28 10:34:41;;;;;;;;;3.25;2.75;;;;;21.90;28.17;102095.53;5081193;27;45391;-68
2023/02/28 10:37:10;;;;;;;;;1.75;1.75;;;;;21.90;28.23;102085.75;5073098;28;45324;-68
2023/02/28 10:39:37;;;;;;;;;3.00;3.00;;;;;21.93;28.19;102088.22;5076333;28;47058;-68
2023/02/28 10:42:03;;;;;;;;;3.00;3.00;;;;;21.90;28.27;102083.09;5070321;27;45365;-68
2023/02/28 10:44:28;;;;;;;;;2.25;2.25;;;;;21.87;27.73;102066.38;5084981;27;44693;-68
2023/02/28 10:46:53;;;;;;;;;5.00;3.00;;;;;21.86;28.44;102070.84;5063484;28;45234;-68
2023/02/28 10:49:23;;;;;;;;;3.50;3.50;;;;;21.96;28.13;102088.06;5076285;27;45277;-68
2023/02/28 10:51:56;;;;;;;;;4.50;3.00;;;;;21.96;28.23;102082.75;5069133;27;45854;-68
2023/02/28 10:54:37;;;;;;;;;3.50;2.00;;;;;21.94;28.01;102081.13;5078016;27;45354;-68
2023/02/28 10:57:18;;;;;;;;;3.00;3.00;;;;;21.91;28.16;102070.63;5057291;28;45544;-68
2023/02/28 10:59:44;;;;;;;;;3.00;2.25;;;;;21.93;27.88;102077.56;5070760;28;45578;-68
2023/02/28 11:02:48;;;;;;;;;2.75;2.75;;;;;21.99;28.00;102073.72;5085445;27;45430;-68
2023/02/28 11:05:26;;;;;;;;;1.00;1.00;;;;;22.00;28.32;102064.78;5022700;28;45445;-68
2023/02/28 11:07:54;;;;;;;;;4.00;2.00;;;;;21.99;27.80;102063.03;5032920;28;46099;-68
2023/02/28 11:10:21;;;;;;;;;1.00;1.00;;;;;22.00;27.96;102056.78;5047217;28;46237;-68
2023/02/28 11:12:46;;;;;;;;;2.00;1.75;;;;;21.99;27.68;102063.94;5074203;27;45188;-68
2023/02/28 11:15:32;;;;;;;;;1.25;1.25;;;;;22.01;27.76;102063.84;5076627;28;45282;-68
2023/02/28 11:18:00;;;;;;;;;2.75;2.75;;;;;22.03;27.83;102058.41;5054907;28;45228;-68
2023/02/28 11:20:28;;;;;;;;;2.00;2.00;;;;;21.99;27.79;102047.94;5078029;27;47975;-68
2023/02/28 11:22:56;;;;;;;;;3.75;2.00;;;;;21.90;27.95;102036.91;5074413;28;45453;-68
2023/02/28 11:25:24;;;;;;;;;2.00;2.00;;;;;22.00;27.68;102054.13;5073354;28;45251;-67
2023/02/28 11:27:56;;;;;;;;;3.50;2.00;;;;;22.03;27.89;102043.28;5053505;28;45362;-68
2023/02/28 11:30:28;;;;;;;;;3.50;1.00;;;;;22.07;27.56;102052.00;5077373;27;47380;-68
2023/02/28 11:32:53;;;;;;;;;2.00;1.50;;;;;22.03;27.90;102050.41;5080111;27;45233;-68